sensor_id;sensor_type;location;lat;lon;timestamp;pressure;altitude;pressure_sealevel;temperature;humidity
17254;BME280;32542;52.832;13.816;2023-04-09T00:02:59;102639.13;;;20.72;47.70
17254;BME280;32542;52.832;13.816;2023-04-09T00:06:02;102637.38;;;20.71;47.76
17254;BME280;32542;52.832;13.816;2023-04-09T00:09:06;102635.63;;;20.70;47.81
17254;BME280;32542;52.832;13.816;2023-04-09T00:12:09;102640.94;;;20.70;47.86
17254;BME280;32542;52.832;13.816;2023-04-09T00:15:12;102635.63;;;20.70;47.60
17254;BME280;32542;52.832;13.816;2023-04-09T00:18:31;102626.78;;;20.68;47.83
17254;BME280;32542;52.832;13.816;2023-04-09T00:21:34;102630.38;;;20.67;47.77
17254;BME280;32542;52.832;13.816;2023-04-09T00:24:38;102622.38;;;20.67;47.68
17254;BME280;32542;52.832;13.816;2023-04-09T00:27:41;102627.69;;;20.67;47.73
17254;BME280;32542;52.832;13.816;2023-04-09T00:30:44;102631.25;;;20.66;47.84
17254;BME280;32542;52.832;13.816;2023-04-09T00:33:47;102631.28;;;20.65;47.97
17254;BME280;32542;52.832;13.816;2023-04-09T00:36:50;102628.59;;;20.66;47.74
17254;BME280;32542;52.832;13.816;2023-04-09T00:39:54;102630.38;;;20.67;47.83
17254;BME280;32542;52.832;13.816;2023-04-09T00:42:57;102628.59;;;20.66;47.92
17254;BME280;32542;52.832;13.816;2023-04-09T00:46:00;102630.41;;;20.64;47.90
17254;BME280;32542;52.832;13.816;2023-04-09T00:49:03;102626.00;;;20.63;47.87
17254;BME280;32542;52.832;13.816;2023-04-09T00:52:06;102627.78;;;20.63;47.98
17254;BME280;32542;52.832;13.816;2023-04-09T00:55:11;102629.56;;;20.62;47.85
17254;BME280;32542;52.832;13.816;2023-04-09T00:58:15;102626.00;;;20.62;47.94
17254;BME280;32542;52.832;13.816;2023-04-09T01:01:17;102629.59;;;20.59;47.94
17254;BME280;32542;52.832;13.816;2023-04-09T01:04:21;102626.06;;;20.59;48.03
17254;BME280;32542;52.832;13.816;2023-04-09T01:07:34;102624.22;;;20.62;47.97
17254;BME280;32542;52.832;13.816;2023-04-09T01:10:46;102623.31;;;20.65;47.78
17254;BME280;32542;52.832;13.816;2023-04-09T01:13:56;102616.13;;;20.68;47.69
17254;BME280;32542;52.832;13.816;2023-04-09T01:17:03;102616.97;;;20.70;47.83
17254;BME280;32542;52.832;13.816;2023-04-09T01:20:10;102618.75;;;20.71;47.71
17254;BME280;32542;52.832;13.816;2023-04-09T01:23:18;102617.81;;;20.72;47.88
17254;BME280;32542;52.832;13.816;2023-04-09T01:26:34;102617.88;;;20.71;48.04
17254;BME280;32542;52.832;13.816;2023-04-09T01:29:46;102616.09;;;20.70;48.11
17254;BME280;32542;52.832;13.816;2023-04-09T01:32:51;102621.44;;;20.68;48.24
17254;BME280;32542;52.832;13.816;2023-04-09T01:35:55;102615.28;;;20.66;48.17
17254;BME280;32542;52.832;13.816;2023-04-09T01:38:59;102617.09;;;20.64;48.41
17254;BME280;32542;52.832;13.816;2023-04-09T01:42:03;102627.75;;;20.64;48.43
17254;BME280;32542;52.832;13.816;2023-04-09T01:45:12;102625.06;;;20.64;48.39
17254;BME280;32542;52.832;13.816;2023-04-09T01:48:17;102622.44;;;20.63;48.47
17254;BME280;32542;52.832;13.816;2023-04-09T01:51:20;102621.56;;;20.62;48.36
17254;BME280;32542;52.832;13.816;2023-04-09T01:54:23;102618.00;;;20.63;48.45
17254;BME280;32542;52.832;13.816;2023-04-09T01:57:26;102622.41;;;20.64;48.51
17254;BME280;32542;52.832;13.816;2023-04-09T02:00:35;102626.84;;;20.64;48.40
17254;BME280;32542;52.832;13.816;2023-04-09T02:03:43;102626.88;;;20.62;48.38
17254;BME280;32542;52.832;13.816;2023-04-09T02:06:53;102630.41;;;20.64;48.48
17254;BME280;32542;52.832;13.816;2023-04-09T02:09:58;102634.00;;;20.63;48.29
17254;BME280;32542;52.832;13.816;2023-04-09T02:13:04;102639.31;;;20.62;48.56
17254;BME280;32542;52.832;13.816;2023-04-09T02:16:09;102636.69;;;20.60;48.55
17254;BME280;32542;52.832;13.816;2023-04-09T02:19:13;102639.34;;;20.60;48.40
17254;BME280;32542;52.832;13.816;2023-04-09T02:22:16;102635.81;;;20.60;48.42
17254;BME280;32542;52.832;13.816;2023-04-09T02:25:21;102640.22;;;20.61;48.43
17254;BME280;32542;52.832;13.816;2023-04-09T02:28:24;102640.22;;;20.61;48.31
17254;BME280;32542;52.832;13.816;2023-04-09T02:31:28;102636.69;;;20.60;48.43
17254;BME280;32542;52.832;13.816;2023-04-09T02:34:31;102644.63;;;20.62;48.35
17254;BME280;32542;52.832;13.816;2023-04-09T02:37:34;102644.63;;;20.63;48.23
17254;BME280;32542;52.832;13.816;2023-04-09T02:40:37;102645.47;;;20.65;48.20
17254;BME280;32542;52.832;13.816;2023-04-09T02:43:40;102651.66;;;20.67;48.17
17254;BME280;32542;52.832;13.816;2023-04-09T02:46:45;102637.44;;;20.68;48.25
17254;BME280;32542;52.832;13.816;2023-04-09T02:49:48;102636.53;;;20.69;48.01
17254;BME280;32542;52.832;13.816;2023-04-09T02:52:51;102634.75;;;20.68;48.05
17254;BME280;32542;52.832;13.816;2023-04-09T02:55:54;102632.09;;;20.68;48.10
17254;BME280;32542;52.832;13.816;2023-04-09T02:58:57;102632.09;;;20.68;47.97
17254;BME280;32542;52.832;13.816;2023-04-09T03:02:01;102631.25;;;20.66;48.03
17254;BME280;32542;52.832;13.816;2023-04-09T03:05:05;102627.69;;;20.66;48.03
17254;BME280;32542;52.832;13.816;2023-04-09T03:08:08;102628.63;;;20.65;48.01
17254;BME280;32542;52.832;13.816;2023-04-09T03:11:11;102630.41;;;20.64;48.11
17254;BME280;32542;52.832;13.816;2023-04-09T03:14:14;102626.00;;;20.63;48.12
17254;BME280;32542;52.832;13.816;2023-04-09T03:17:19;102624.22;;;20.62;48.09
17254;BME280;32542;52.832;13.816;2023-04-09T03:20:22;102626.94;;;20.61;48.10
17254;BME280;32542;52.832;13.816;2023-04-09T03:23:25;102627.78;;;20.63;48.11
17254;BME280;32542;52.832;13.816;2023-04-09T03:26:28;102626.00;;;20.62;48.30
17254;BME280;32542;52.832;13.816;2023-04-09T03:29:38;102626.88;;;20.62;48.31
17254;BME280;32542;52.832;13.816;2023-04-09T03:32:43;102623.34;;;20.62;48.20
17254;BME280;32542;52.832;13.816;2023-04-09T03:35:47;102630.47;;;20.60;48.27
17254;BME280;32542;52.832;13.816;2023-04-09T03:38:55;102625.19;;;20.58;48.04
17254;BME280;32542;52.832;13.816;2023-04-09T03:42:03;102623.41;;;20.57;48.33
17254;BME280;32542;52.832;13.816;2023-04-09T03:45:16;102620.78;;;20.56;48.29
17254;BME280;32542;52.832;13.816;2023-04-09T03:48:23;102627.88;;;20.55;48.25
17254;BME280;32542;52.832;13.816;2023-04-09T03:51:26;102623.44;;;20.56;48.31
17254;BME280;32542;52.832;13.816;2023-04-09T03:54:32;102624.38;;;20.55;48.34
17254;BME280;32542;52.832;13.816;2023-04-09T03:57:39;102627.88;;;20.57;48.32
17254;BME280;32542;52.832;13.816;2023-04-09T04:00:46;102625.19;;;20.58;48.33
17254;BME280;32542;52.832;13.816;2023-04-09T04:04:16;102627.00;;;20.56;48.24
17254;BME280;32542;52.832;13.816;2023-04-09T04:07:28;102625.22;;;20.55;48.17
17254;BME280;32542;52.832;13.816;2023-04-09T04:10:36;102626.06;;;20.57;48.26
17254;BME280;32542;52.832;13.816;2023-04-09T04:13:39;102620.75;;;20.57;48.18
17254;BME280;32542;52.832;13.816;2023-04-09T04:16:43;102623.41;;;20.57;48.15
17254;BME280;32542;52.832;13.816;2023-04-09T04:19:52;102622.56;;;20.57;48.13
17254;BME280;32542;52.832;13.816;2023-04-09T04:22:56;102623.41;;;20.57;48.10
17254;BME280;32542;52.832;13.816;2023-04-09T04:26:00;102621.69;;;20.56;48.08
17254;BME280;32542;52.832;13.816;2023-04-09T04:29:08;102621.69;;;20.56;48.03
17254;BME280;32542;52.832;13.816;2023-04-09T04:32:31;102633.22;;;20.55;48.15
17254;BME280;32542;52.832;13.816;2023-04-09T04:35:40;102632.31;;;20.56;47.99
17254;BME280;32542;52.832;13.816;2023-04-09T04:38:51;102635.03;;;20.55;48.04
17254;BME280;32542;52.832;13.816;2023-04-09T04:42:14;102632.38;;;20.55;47.96
17254;BME280;32542;52.832;13.816;2023-04-09T04:45:19;102630.56;;;20.55;47.92
17254;BME280;32542;52.832;13.816;2023-04-09T04:48:25;102635.00;;;20.56;48.00
17254;BME280;32542;52.832;13.816;2023-04-09T04:51:31;102632.31;;;20.56;48.11
17254;BME280;32542;52.832;13.816;2023-04-09T04:54:38;102642.06;;;20.57;47.95
17254;BME280;32542;52.832;13.816;2023-04-09T04:57:42;102642.94;;;20.58;48.07
17254;BME280;32542;52.832;13.816;2023-04-09T05:00:46;102642.97;;;20.56;48.02
17254;BME280;32542;52.832;13.816;2023-04-09T05:03:49;102645.66;;;20.55;47.99
17254;BME280;32542;52.832;13.816;2023-04-09T05:07:11;102656.31;;;20.55;48.11
17254;BME280;32542;52.832;13.816;2023-04-09T05:10:22;102657.16;;;20.55;48.07
17254;BME280;32542;52.832;13.816;2023-04-09T05:13:24;102651.88;;;20.54;47.92
17254;BME280;32542;52.832;13.816;2023-04-09T05:16:28;102648.34;;;20.53;47.97
17254;BME280;32542;52.832;13.816;2023-04-09T05:19:37;102651.00;;;20.53;48.10
17254;BME280;32542;52.832;13.816;2023-04-09T05:22:41;102651.00;;;20.53;47.94
17254;BME280;32542;52.832;13.816;2023-04-09T05:25:45;102653.66;;;20.53;47.95
17254;BME280;32542;52.832;13.816;2023-04-09T05:29:04;102655.44;;;20.54;47.94
17254;BME280;32542;52.832;13.816;2023-04-09T05:32:07;102652.78;;;20.54;47.99
17254;BME280;32542;52.832;13.816;2023-04-09T05:35:13;102646.56;;;20.54;48.14
17254;BME280;32542;52.832;13.816;2023-04-09T05:38:19;102651.00;;;20.53;48.06
17254;BME280;32542;52.832;13.816;2023-04-09T05:41:29;102653.66;;;20.53;48.11
17254;BME280;32542;52.832;13.816;2023-04-09T05:44:56;102650.13;;;20.53;47.98
17254;BME280;32542;52.832;13.816;2023-04-09T05:47:59;102654.56;;;20.52;48.04
17254;BME280;32542;52.832;13.816;2023-04-09T05:51:02;102657.25;;;20.52;47.93
17254;BME280;32542;52.832;13.816;2023-04-09T05:54:08;102659.88;;;20.54;47.90
17254;BME280;32542;52.832;13.816;2023-04-09T05:57:12;102663.41;;;20.54;47.96
17254;BME280;32542;52.832;13.816;2023-04-09T06:00:19;102665.19;;;20.54;48.03
17254;BME280;32542;52.832;13.816;2023-04-09T06:03:23;102671.41;;;20.54;48.03
17254;BME280;32542;52.832;13.816;2023-04-09T06:06:27;102668.75;;;20.54;47.84
17254;BME280;32542;52.832;13.816;2023-04-09T06:09:31;102663.38;;;20.56;47.78
17254;BME280;32542;52.832;13.816;2023-04-09T06:12:35;102664.25;;;20.56;47.90
17254;BME280;32542;52.832;13.816;2023-04-09T06:15:38;102666.00;;;20.57;47.81
17254;BME280;32542;52.832;13.816;2023-04-09T06:18:41;102671.34;;;20.57;47.70
17254;BME280;32542;52.832;13.816;2023-04-09T06:21:43;102675.81;;;20.57;47.73
17254;BME280;32542;52.832;13.816;2023-04-09T06:24:48;102675.81;;;20.57;47.81
17254;BME280;32542;52.832;13.816;2023-04-09T06:27:51;102674.00;;;20.57;47.74
17254;BME280;32542;52.832;13.816;2023-04-09T06:30:53;102674.91;;;20.56;47.82
17254;BME280;32542;52.832;13.816;2023-04-09T06:33:56;102680.22;;;20.56;47.82
17254;BME280;32542;52.832;13.816;2023-04-09T06:36:59;102674.03;;;20.56;47.80
17254;BME280;32542;52.832;13.816;2023-04-09T06:40:04;102677.56;;;20.56;47.91
17254;BME280;32542;52.832;13.816;2023-04-09T06:43:07;102673.13;;;20.55;47.80
17254;BME280;32542;52.832;13.816;2023-04-09T06:46:17;102674.91;;;20.56;47.70
17254;BME280;32542;52.832;13.816;2023-04-09T06:49:21;102672.28;;;20.55;47.94
17254;BME280;32542;52.832;13.816;2023-04-09T06:52:24;102685.56;;;20.56;47.78
17254;BME280;32542;52.832;13.816;2023-04-09T06:55:28;102685.56;;;20.56;47.75
17254;BME280;32542;52.832;13.816;2023-04-09T06:58:31;102691.78;;;20.55;47.75
17254;BME280;32542;52.832;13.816;2023-04-09T07:01:34;102695.31;;;20.56;47.81
17254;BME280;32542;52.832;13.816;2023-04-09T07:04:38;102699.75;;;20.55;47.83
17254;BME280;32542;52.832;13.816;2023-04-09T07:07:41;102690.91;;;20.55;47.79
17254;BME280;32542;52.832;13.816;2023-04-09T07:10:46;102689.09;;;20.55;47.84
17254;BME280;32542;52.832;13.816;2023-04-09T07:13:49;102693.56;;;20.55;47.81
17254;BME280;32542;52.832;13.816;2023-04-09T07:16:52;102683.78;;;20.55;47.85
17254;BME280;32542;52.832;13.816;2023-04-09T07:19:55;102689.09;;;20.55;47.81
17254;BME280;32542;52.832;13.816;2023-04-09T07:22:58;102692.69;;;20.54;47.70
17254;BME280;32542;52.832;13.816;2023-04-09T07:26:03;102686.44;;;20.55;47.76
17254;BME280;32542;52.832;13.816;2023-04-09T07:29:06;102689.09;;;20.55;47.84
17254;BME280;32542;52.832;13.816;2023-04-09T07:32:09;102683.78;;;20.55;47.63
17254;BME280;32542;52.832;13.816;2023-04-09T07:35:12;102691.78;;;20.55;47.65
17254;BME280;32542;52.832;13.816;2023-04-09T07:38:15;102690.88;;;20.56;47.73
17254;BME280;32542;52.832;13.816;2023-04-09T07:41:19;102691.78;;;20.55;47.65
17254;BME280;32542;52.832;13.816;2023-04-09T07:44:22;102694.44;;;20.55;47.67
17254;BME280;32542;52.832;13.816;2023-04-09T07:47:25;102694.44;;;20.55;47.60
17254;BME280;32542;52.832;13.816;2023-04-09T07:50:29;102699.75;;;20.55;47.75
17254;BME280;32542;52.832;13.816;2023-04-09T07:53:31;102693.56;;;20.55;47.70
17254;BME280;32542;52.832;13.816;2023-04-09T07:56:36;102698.03;;;20.54;47.62
17254;BME280;32542;52.832;13.816;2023-04-09T07:59:38;102695.31;;;20.56;47.65
17254;BME280;32542;52.832;13.816;2023-04-09T08:02:42;102699.75;;;20.55;47.66
17254;BME280;32542;52.832;13.816;2023-04-09T08:05:45;102693.56;;;20.53;47.64
17254;BME280;32542;52.832;13.816;2023-04-09T08:08:48;102710.41;;;20.55;47.66
17254;BME280;32542;52.832;13.816;2023-04-09T08:11:52;102703.34;;;20.54;47.62
17254;BME280;32542;52.832;13.816;2023-04-09T08:14:55;102702.41;;;20.55;47.64
17254;BME280;32542;52.832;13.816;2023-04-09T08:17:58;102704.22;;;20.55;47.62
17254;BME280;32542;52.832;13.816;2023-04-09T08:21:04;102708.66;;;20.54;47.67
17254;BME280;32542;52.832;13.816;2023-04-09T08:24:07;102713.06;;;20.55;47.61
17254;BME280;32542;52.832;13.816;2023-04-09T08:27:13;102709.56;;;20.55;47.70
17254;BME280;32542;52.832;13.816;2023-04-09T08:30:15;102718.38;;;20.55;47.53
17254;BME280;32542;52.832;13.816;2023-04-09T08:33:19;102720.16;;;20.56;47.48
17254;BME280;32542;52.832;13.816;2023-04-09T08:36:22;102712.22;;;20.53;47.54
17254;BME280;32542;52.832;13.816;2023-04-09T08:47:00;102722.00;;;20.53;47.42
17254;BME280;32542;52.832;13.816;2023-04-09T08:50:04;102728.19;;;20.53;47.41
17254;BME280;32542;52.832;13.816;2023-04-09T08:53:09;102721.97;;;20.54;47.34
17254;BME280;32542;52.832;13.816;2023-04-09T08:56:12;102713.97;;;20.54;47.46
17254;BME280;32542;52.832;13.816;2023-04-09T08:59:16;102713.94;;;20.56;47.38
17254;BME280;32542;52.832;13.816;2023-04-09T09:02:21;102710.41;;;20.55;46.98
17254;BME280;32542;52.832;13.816;2023-04-09T09:05:34;102713.09;;;20.54;46.01
17254;BME280;32542;52.832;13.816;2023-04-09T09:08:37;102705.16;;;20.52;44.97
17254;BME280;32542;52.832;13.816;2023-04-09T09:11:41;102706.03;;;20.51;43.54
17254;BME280;32542;52.832;13.816;2023-04-09T09:14:44;102711.44;;;20.48;43.19
17254;BME280;32542;52.832;13.816;2023-04-09T09:17:54;102714.09;;;20.47;42.77
17254;BME280;32542;52.832;13.816;2023-04-09T09:21:08;102712.38;;;20.44;43.25
17254;BME280;32542;52.832;13.816;2023-04-09T09:24:16;102711.50;;;20.44;43.58
17254;BME280;32542;52.832;13.816;2023-04-09T09:27:32;102716.81;;;20.44;43.92
17254;BME280;32542;52.832;13.816;2023-04-09T09:30:38;102715.00;;;20.46;44.39
17254;BME280;32542;52.832;13.816;2023-04-09T09:33:43;102716.69;;;20.51;44.75
17254;BME280;32542;52.832;13.816;2023-04-09T09:36:46;102717.50;;;20.56;44.90
17254;BME280;32542;52.832;13.816;2023-04-09T09:39:49;102721.84;;;20.63;45.88
17254;BME280;32542;52.832;13.816;2023-04-09T09:42:53;102720.81;;;20.70;46.28
17254;BME280;32542;52.832;13.816;2023-04-09T09:45:57;102720.69;;;20.76;46.17
17254;BME280;32542;52.832;13.816;2023-04-09T09:49:01;102711.75;;;20.80;46.35
17254;BME280;32542;52.832;13.816;2023-04-09T09:52:07;102709.03;;;20.85;46.85
17254;BME280;32542;52.832;13.816;2023-04-09T09:55:12;102713.38;;;20.90;47.45
17254;BME280;32542;52.832;13.816;2023-04-09T09:58:18;102706.22;;;20.94;47.40
17254;BME280;32542;52.832;13.816;2023-04-09T10:01:25;102705.28;;;20.96;47.94
17254;BME280;32542;52.832;13.816;2023-04-09T10:04:33;102700.81;;;20.98;48.00
17254;BME280;32542;52.832;13.816;2023-04-09T10:07:36;102705.22;;;20.99;48.09
17254;BME280;32542;52.832;13.816;2023-04-09T10:10:41;102702.53;;;21.01;48.20
17254;BME280;32542;52.832;13.816;2023-04-09T10:13:49;102702.53;;;21.03;48.11
17254;BME280;32542;52.832;13.816;2023-04-09T10:16:54;102697.22;;;21.03;48.43
17254;BME280;32542;52.832;13.816;2023-04-09T10:20:06;102706.09;;;21.02;48.57
17254;BME280;32542;52.832;13.816;2023-04-09T10:23:18;102704.28;;;21.02;48.67
17254;BME280;32542;52.832;13.816;2023-04-09T10:26:24;102698.09;;;21.03;49.53
17254;BME280;32542;52.832;13.816;2023-04-09T10:29:28;102697.13;;;21.07;50.85
17254;BME280;32542;52.832;13.816;2023-04-09T10:32:33;102702.38;;;21.12;52.12
17254;BME280;32542;52.832;13.816;2023-04-09T10:35:38;102701.44;;;21.13;52.43
17254;BME280;32542;52.832;13.816;2023-04-09T10:38:44;102686.38;;;21.12;52.73
17254;BME280;32542;52.832;13.816;2023-04-09T10:41:48;102688.13;;;21.13;53.37
17254;BME280;32542;52.832;13.816;2023-04-09T10:45:07;102690.78;;;21.13;54.19
17254;BME280;32542;52.832;13.816;2023-04-09T10:48:11;102697.91;;;21.14;54.66
17254;BME280;32542;52.832;13.816;2023-04-09T10:51:18;102697.06;;;21.12;54.66
17254;BME280;32542;52.832;13.816;2023-04-09T10:54:38;102681.06;;;21.12;54.38
17254;BME280;32542;52.832;13.816;2023-04-09T10:57:44;102688.16;;;21.11;54.01
17254;BME280;32542;52.832;13.816;2023-04-09T11:00:48;102684.63;;;21.11;53.81
17254;BME280;32542;52.832;13.816;2023-04-09T11:04:07;102683.72;;;21.10;53.42
17254;BME280;32542;52.832;13.816;2023-04-09T11:07:14;102677.56;;;21.10;53.24
17254;BME280;32542;52.832;13.816;2023-04-09T11:10:18;102680.22;;;21.08;53.06
17254;BME280;32542;52.832;13.816;2023-04-09T11:13:21;102683.81;;;21.07;53.00
17254;BME280;32542;52.832;13.816;2023-04-09T11:16:24;102677.59;;;21.07;52.94
17254;BME280;32542;52.832;13.816;2023-04-09T11:19:32;102682.97;;;21.05;52.74
17254;BME280;32542;52.832;13.816;2023-04-09T11:22:37;102674.13;;;21.03;52.65
17254;BME280;32542;52.832;13.816;2023-04-09T11:25:40;102671.47;;;21.03;52.66
17254;BME280;32542;52.832;13.816;2023-04-09T11:28:42;102668.78;;;21.02;52.43
17254;BME280;32542;52.832;13.816;2023-04-09T11:31:45;102668.78;;;21.02;52.19
17254;BME280;32542;52.832;13.816;2023-04-09T11:34:51;102672.34;;;21.00;52.04
17254;BME280;32542;52.832;13.816;2023-04-09T11:37:55;102670.56;;;20.99;52.00
17254;BME280;32542;52.832;13.816;2023-04-09T11:40:58;102673.25;;;20.99;51.80
17254;BME280;32542;52.832;13.816;2023-04-09T11:44:02;102671.50;;;20.98;51.72
17254;BME280;32542;52.832;13.816;2023-04-09T11:47:05;102673.25;;;20.99;51.58
17254;BME280;32542;52.832;13.816;2023-04-09T11:50:10;102663.50;;;20.98;51.66
17254;BME280;32542;52.832;13.816;2023-04-09T11:53:18;102665.28;;;20.98;51.59
17254;BME280;32542;52.832;13.816;2023-04-09T11:56:21;102670.66;;;20.96;51.52
17254;BME280;32542;52.832;13.816;2023-04-09T11:59:25;102668.00;;;20.96;51.55
17254;BME280;32542;52.832;13.816;2023-04-09T12:02:28;102661.75;;;20.97;51.41
17254;BME280;32542;52.832;13.816;2023-04-09T12:05:33;102669.72;;;20.97;51.52
17254;BME280;32542;52.832;13.816;2023-04-09T12:08:38;102669.72;;;20.97;51.30
17254;BME280;32542;52.832;13.816;2023-04-09T12:11:42;102671.53;;;20.95;51.36
17254;BME280;32542;52.832;13.816;2023-04-09T12:14:45;102668.88;;;20.95;51.69
17254;BME280;32542;52.832;13.816;2023-04-09T12:17:50;102671.59;;;20.94;51.70
17254;BME280;32542;52.832;13.816;2023-04-09T12:20:52;102666.22;;;20.95;51.79
17254;BME280;32542;52.832;13.816;2023-04-09T12:23:57;102668.91;;;20.94;51.60
17254;BME280;32542;52.832;13.816;2023-04-09T12:27:00;102662.69;;;20.93;51.66
17254;BME280;32542;52.832;13.816;2023-04-09T12:30:04;102665.41;;;20.92;51.65
17254;BME280;32542;52.832;13.816;2023-04-09T12:33:07;102665.44;;;20.90;51.70
17254;BME280;32542;52.832;13.816;2023-04-09T12:36:11;102656.56;;;20.90;51.57
17254;BME280;32542;52.832;13.816;2023-04-09T12:39:16;102659.22;;;20.90;51.61
17254;BME280;32542;52.832;13.816;2023-04-09T12:42:18;102658.34;;;20.89;51.58
17254;BME280;32542;52.832;13.816;2023-04-09T12:45:22;102651.28;;;20.88;51.46
17254;BME280;32542;52.832;13.816;2023-04-09T12:48:24;102650.38;;;20.88;51.51
17254;BME280;32542;52.832;13.816;2023-04-09T12:51:28;102648.63;;;20.88;51.50
17254;BME280;32542;52.832;13.816;2023-04-09T12:54:32;102637.97;;;20.87;51.42
17254;BME280;32542;52.832;13.816;2023-04-09T12:57:36;102630.88;;;20.87;51.35
17254;BME280;32542;52.832;13.816;2023-04-09T13:00:39;102629.09;;;20.88;51.40
17254;BME280;32542;52.832;13.816;2023-04-09T13:03:42;102626.47;;;20.86;51.19
17254;BME280;32542;52.832;13.816;2023-04-09T13:06:45;102613.16;;;20.86;51.30
17254;BME280;32542;52.832;13.816;2023-04-09T13:09:50;102614.03;;;20.85;51.26
17254;BME280;32542;52.832;13.816;2023-04-09T13:12:53;102617.53;;;20.87;51.22
17254;BME280;32542;52.832;13.816;2023-04-09T13:15:56;102610.47;;;20.86;51.02
17254;BME280;32542;52.832;13.816;2023-04-09T13:18:58;102606.03;;;20.85;51.12
17254;BME280;32542;52.832;13.816;2023-04-09T13:22:01;102608.72;;;20.85;50.95
17254;BME280;32542;52.832;13.816;2023-04-09T13:25:08;102600.72;;;20.85;50.94
17254;BME280;32542;52.832;13.816;2023-04-09T13:28:12;102596.31;;;20.84;50.96
17254;BME280;32542;52.832;13.816;2023-04-09T13:31:14;102594.50;;;20.85;50.84
17254;BME280;32542;52.832;13.816;2023-04-09T13:34:17;102596.31;;;20.84;50.83
17254;BME280;32542;52.832;13.816;2023-04-09T13:37:20;102591.84;;;20.85;50.73
17254;BME280;32542;52.832;13.816;2023-04-09T13:40:24;102586.53;;;20.85;50.70
17254;BME280;32542;52.832;13.816;2023-04-09T13:43:27;102590.06;;;20.85;50.59
17254;BME280;32542;52.832;13.816;2023-04-09T13:46:30;102580.34;;;20.84;50.72
17254;BME280;32542;52.832;13.816;2023-04-09T13:49:34;102578.53;;;20.85;50.72
17254;BME280;32542;52.832;13.816;2023-04-09T13:52:37;102577.69;;;20.84;50.70
17254;BME280;32542;52.832;13.816;2023-04-09T13:55:41;102571.47;;;20.84;50.74
17254;BME280;32542;52.832;13.816;2023-04-09T13:58:44;102575.88;;;20.85;50.71
17254;BME280;32542;52.832;13.816;2023-04-09T14:01:47;102569.69;;;20.84;50.77
17254;BME280;32542;52.832;13.816;2023-04-09T14:04:50;102567.88;;;20.85;50.78
17254;BME280;32542;52.832;13.816;2023-04-09T14:07:53;102567.03;;;20.84;50.91
17254;BME280;32542;52.832;13.816;2023-04-09T14:10:58;102563.44;;;20.85;50.85
17254;BME280;32542;52.832;13.816;2023-04-09T14:14:00;102561.66;;;20.86;50.92
17254;BME280;32542;52.832;13.816;2023-04-09T14:17:03;102556.34;;;20.86;51.08
17254;BME280;32542;52.832;13.816;2023-04-09T14:20:07;102555.44;;;20.85;51.07
17254;BME280;32542;52.832;13.816;2023-04-09T14:23:10;102567.00;;;20.86;51.16
17254;BME280;32542;52.832;13.816;2023-04-09T14:26:15;102559.88;;;20.86;51.24
17254;BME280;32542;52.832;13.816;2023-04-09T14:29:18;102563.44;;;20.85;51.21
17254;BME280;32542;52.832;13.816;2023-04-09T14:32:21;102556.38;;;20.84;51.22
17254;BME280;32542;52.832;13.816;2023-04-09T14:35:24;102549.25;;;20.85;51.17
17254;BME280;32542;52.832;13.816;2023-04-09T14:38:27;102551.91;;;20.85;51.21
17254;BME280;32542;52.832;13.816;2023-04-09T14:41:31;102550.16;;;20.84;51.15
17254;BME280;32542;52.832;13.816;2023-04-09T14:44:37;102547.50;;;20.84;51.07
17254;BME280;32542;52.832;13.816;2023-04-09T14:47:39;102543.91;;;20.85;50.91
17254;BME280;32542;52.832;13.816;2023-04-09T14:50:42;102543.97;;;20.83;51.03
17254;BME280;32542;52.832;13.816;2023-04-09T14:53:45;102545.72;;;20.84;50.94
17254;BME280;32542;52.832;13.816;2023-04-09T14:56:50;102538.63;;;20.83;50.86
17254;BME280;32542;52.832;13.816;2023-04-09T14:59:53;102540.41;;;20.83;50.89
17254;BME280;32542;52.832;13.816;2023-04-09T15:02:55;102540.41;;;20.83;50.91
17254;BME280;32542;52.832;13.816;2023-04-09T15:05:59;102545.72;;;20.83;50.88
17254;BME280;32542;52.832;13.816;2023-04-09T15:09:02;102543.97;;;20.83;50.76
17254;BME280;32542;52.832;13.816;2023-04-09T15:12:06;102537.72;;;20.84;50.73
17254;BME280;32542;52.832;13.816;2023-04-09T15:15:10;102532.41;;;20.83;50.61
17254;BME280;32542;52.832;13.816;2023-04-09T15:18:14;102538.63;;;20.83;50.58
17254;BME280;32542;52.832;13.816;2023-04-09T15:21:17;102546.63;;;20.83;50.65
17254;BME280;32542;52.832;13.816;2023-04-09T15:24:20;102541.28;;;20.83;50.47
17254;BME280;32542;52.832;13.816;2023-04-09T15:27:24;102545.72;;;20.84;50.76
17254;BME280;32542;52.832;13.816;2023-04-09T15:30:27;102553.69;;;20.86;51.01
17254;BME280;32542;52.832;13.816;2023-04-09T15:33:30;102548.31;;;20.87;51.12
17254;BME280;32542;52.832;13.816;2023-04-09T15:36:33;102541.16;;;20.89;51.20
17254;BME280;32542;52.832;13.816;2023-04-09T15:39:35;102542.94;;;20.90;51.35
17254;BME280;32542;52.832;13.816;2023-04-09T15:42:39;102546.44;;;20.92;51.74
17254;BME280;32542;52.832;13.816;2023-04-09T15:45:44;102544.63;;;20.94;51.82
17254;BME280;32542;52.832;13.816;2023-04-09T15:48:48;102538.38;;;20.95;51.89
17254;BME280;32542;52.832;13.816;2023-04-09T15:51:51;102533.94;;;20.96;51.86
17254;BME280;32542;52.832;13.816;2023-04-09T15:54:54;102539.22;;;20.97;52.11
17254;BME280;32542;52.832;13.816;2023-04-09T15:57:59;102532.06;;;20.99;52.21
17254;BME280;32542;52.832;13.816;2023-04-09T16:01:05;102533.84;;;21.00;52.55
17254;BME280;32542;52.832;13.816;2023-04-09T16:04:08;102535.59;;;21.02;52.43